sensor_id;sensor_type;location;lat;lon;timestamp;temperature;humidity
75683;HTU21D;64295;44.772;39.872;2023-04-06T00:02:02;11.54;72.04
75683;HTU21D;64295;44.772;39.872;2023-04-06T00:04:27;11.52;72.09
75683;HTU21D;64295;44.772;39.872;2023-04-06T00:06:53;11.49;72.14
75683;HTU21D;64295;44.772;39.872;2023-04-06T00:09:19;11.46;72.19
75683;HTU21D;64295;44.772;39.872;2023-04-06T00:11:45;11.44;72.31
75683;HTU21D;64295;44.772;39.872;2023-04-06T00:14:11;11.46;72.29
75683;HTU21D;64295;44.772;39.872;2023-04-06T00:16:37;11.47;72.25
75683;HTU21D;64295;44.772;39.872;2023-04-06T00:19:05;11.49;72.24
75683;HTU21D;64295;44.772;39.872;2023-04-06T00:21:33;11.52;72.20
75683;HTU21D;64295;44.772;39.872;2023-04-06T00:24:04;11.53;72.15
75683;HTU21D;64295;44.772;39.872;2023-04-06T00:26:30;11.53;72.15
75683;HTU21D;64295;44.772;39.872;2023-04-06T00:28:56;11.54;72.16
75683;HTU21D;64295;44.772;39.872;2023-04-06T00:31:25;11.55;72.16
75683;HTU21D;64295;44.772;39.872;2023-04-06T00:33:51;11.54;72.23
75683;HTU21D;64295;44.772;39.872;2023-04-06T00:36:18;11.54;72.25
75683;HTU21D;64295;44.772;39.872;2023-04-06T00:38:44;11.55;72.24
75683;HTU21D;64295;44.772;39.872;2023-04-06T00:41:10;11.54;72.25
75683;HTU21D;64295;44.772;39.872;2023-04-06T00:43:37;11.55;72.22
75683;HTU21D;64295;44.772;39.872;2023-04-06T00:46:02;11.54;72.25
75683;HTU21D;64295;44.772;39.872;2023-04-06T00:48:28;11.53;72.32
75683;HTU21D;64295;44.772;39.872;2023-04-06T00:50:57;11.54;72.35
75683;HTU21D;64295;44.772;39.872;2023-04-06T00:53:23;11.55;72.34
75683;HTU21D;64295;44.772;39.872;2023-04-06T00:55:50;11.57;72.35
75683;HTU21D;64295;44.772;39.872;2023-04-06T00:58:17;11.57;72.40
75683;HTU21D;64295;44.772;39.872;2023-04-06T01:00:48;11.56;72.45
75683;HTU21D;64295;44.772;39.872;2023-04-06T01:03:17;11.58;72.49
75683;HTU21D;64295;44.772;39.872;2023-04-06T01:05:43;11.56;72.52
75683;HTU21D;64295;44.772;39.872;2023-04-06T01:08:24;11.57;72.54
75683;HTU21D;64295;44.772;39.872;2023-04-06T01:10:56;11.57;72.52
75683;HTU21D;64295;44.772;39.872;2023-04-06T01:13:27;11.57;72.54
75683;HTU21D;64295;44.772;39.872;2023-04-06T01:15:58;11.56;72.58
75683;HTU21D;64295;44.772;39.872;2023-04-06T01:18:35;11.59;72.56
75683;HTU21D;64295;44.772;39.872;2023-04-06T01:21:15;11.60;72.54
75683;HTU21D;64295;44.772;39.872;2023-04-06T01:23:51;11.59;72.56
75683;HTU21D;64295;44.772;39.872;2023-04-06T01:26:24;11.56;72.73
75683;HTU21D;64295;44.772;39.872;2023-04-06T01:28:52;11.58;72.75
75683;HTU21D;64295;44.772;39.872;2023-04-06T01:31:29;11.60;72.71
75683;HTU21D;64295;44.772;39.872;2023-04-06T01:33:55;11.61;72.73
75683;HTU21D;64295;44.772;39.872;2023-04-06T01:36:24;11.61;72.76
75683;HTU21D;64295;44.772;39.872;2023-04-06T01:39:19;11.60;72.74
75683;HTU21D;64295;44.772;39.872;2023-04-06T01:41:45;11.61;72.80
75683;HTU21D;64295;44.772;39.872;2023-04-06T01:44:16;11.59;72.87
75683;HTU21D;64295;44.772;39.872;2023-04-06T01:46:42;11.56;72.82
75683;HTU21D;64295;44.772;39.872;2023-04-06T01:49:12;11.53;72.69
75683;HTU21D;64295;44.772;39.872;2023-04-06T01:51:40;11.54;72.83
75683;HTU21D;64295;44.772;39.872;2023-04-06T01:54:09;11.55;72.87
75683;HTU21D;64295;44.772;39.872;2023-04-06T01:57:08;11.57;72.90
75683;HTU21D;64295;44.772;39.872;2023-04-06T01:59:42;11.57;72.91
75683;HTU21D;64295;44.772;39.872;2023-04-06T02:02:19;11.59;72.90
75683;HTU21D;64295;44.772;39.872;2023-04-06T02:04:55;11.62;72.95
75683;HTU21D;64295;44.772;39.872;2023-04-06T02:07:21;11.66;72.99
75683;HTU21D;64295;44.772;39.872;2023-04-06T02:09:47;11.67;73.02
75683;HTU21D;64295;44.772;39.872;2023-04-06T02:12:22;11.68;73.05
75683;HTU21D;64295;44.772;39.872;2023-04-06T02:14:49;11.71;73.06
75683;HTU21D;64295;44.772;39.872;2023-04-06T02:17:15;11.70;73.12
75683;HTU21D;64295;44.772;39.872;2023-04-06T02:19:41;11.69;73.17
75683;HTU21D;64295;44.772;39.872;2023-04-06T02:22:07;11.69;73.23
75683;HTU21D;64295;44.772;39.872;2023-04-06T02:24:33;11.70;73.30
75683;HTU21D;64295;44.772;39.872;2023-04-06T02:26:59;11.72;73.31
75683;HTU21D;64295;44.772;39.872;2023-04-06T02:29:26;11.73;73.32
75683;HTU21D;64295;44.772;39.872;2023-04-06T02:31:52;11.76;73.34
75683;HTU21D;64295;44.772;39.872;2023-04-06T02:34:19;11.77;73.33
75683;HTU21D;64295;44.772;39.872;2023-04-06T02:36:51;11.78;73.38
75683;HTU21D;64295;44.772;39.872;2023-04-06T02:39:20;11.81;73.35
75683;HTU21D;64295;44.772;39.872;2023-04-06T02:41:46;11.82;73.38
75683;HTU21D;64295;44.772;39.872;2023-04-06T02:44:18;11.81;73.43
75683;HTU21D;64295;44.772;39.872;2023-04-06T02:46:44;11.85;73.45
75683;HTU21D;64295;44.772;39.872;2023-04-06T02:49:12;11.84;73.46
75683;HTU21D;64295;44.772;39.872;2023-04-06T02:51:39;11.86;73.51
75683;HTU21D;64295;44.772;39.872;2023-04-06T02:54:19;11.85;73.51
75683;HTU21D;64295;44.772;39.872;2023-04-06T02:56:45;11.84;73.57
75683;HTU21D;64295;44.772;39.872;2023-04-06T02:59:12;11.83;73.66
75683;HTU21D;64295;44.772;39.872;2023-04-06T03:01:42;11.82;73.70
75683;HTU21D;64295;44.772;39.872;2023-04-06T03:04:08;11.81;73.70
75683;HTU21D;64295;44.772;39.872;2023-04-06T03:06:33;11.79;73.79
75683;HTU21D;64295;44.772;39.872;2023-04-06T03:09:09;11.78;73.66
75683;HTU21D;64295;44.772;39.872;2023-04-06T03:11:35;11.78;73.56
75683;HTU21D;64295;44.772;39.872;2023-04-06T03:14:01;11.76;73.64
75683;HTU21D;64295;44.772;39.872;2023-04-06T03:16:27;11.73;73.83
75683;HTU21D;64295;44.772;39.872;2023-04-06T03:18:53;11.67;74.02
75683;HTU21D;64295;44.772;39.872;2023-04-06T03:21:20;11.64;74.15
75683;HTU21D;64295;44.772;39.872;2023-04-06T03:23:49;11.64;74.19
75683;HTU21D;64295;44.772;39.872;2023-04-06T03:26:16;11.67;74.18
75683;HTU21D;64295;44.772;39.872;2023-04-06T03:28:43;11.68;74.18
75683;HTU21D;64295;44.772;39.872;2023-04-06T03:31:09;11.69;74.25
75683;HTU21D;64295;44.772;39.872;2023-04-06T03:33:40;11.69;74.28
75683;HTU21D;64295;44.772;39.872;2023-04-06T03:36:10;11.69;74.29
75683;HTU21D;64295;44.772;39.872;2023-04-06T03:38:39;11.72;74.29
75683;HTU21D;64295;44.772;39.872;2023-04-06T03:41:10;11.73;74.29
75683;HTU21D;64295;44.772;39.872;2023-04-06T03:43:38;11.74;74.30
75683;HTU21D;64295;44.772;39.872;2023-04-06T03:46:04;11.76;74.32
75683;HTU21D;64295;44.772;39.872;2023-04-06T03:48:31;11.78;74.35
75683;HTU21D;64295;44.772;39.872;2023-04-06T03:51:01;11.76;74.41
75683;HTU21D;64295;44.772;39.872;2023-04-06T03:53:27;11.77;74.43
75683;HTU21D;64295;44.772;39.872;2023-04-06T03:55:54;11.81;74.42
75683;HTU21D;64295;44.772;39.872;2023-04-06T03:58:20;11.83;74.40
75683;HTU21D;64295;44.772;39.872;2023-04-06T04:00:46;11.84;74.37
75683;HTU21D;64295;44.772;39.872;2023-04-06T04:03:12;11.88;74.38
75683;HTU21D;64295;44.772;39.872;2023-04-06T04:05:38;11.89;74.36
75683;HTU21D;64295;44.772;39.872;2023-04-06T04:08:04;11.90;74.37
75683;HTU21D;64295;44.772;39.872;2023-04-06T04:10:30;11.91;74.38
75683;HTU21D;64295;44.772;39.872;2023-04-06T04:12:56;11.92;74.42
75683;HTU21D;64295;44.772;39.872;2023-04-06T04:15:22;11.91;74.47
75683;HTU21D;64295;44.772;39.872;2023-04-06T04:17:49;11.91;74.51
75683;HTU21D;64295;44.772;39.872;2023-04-06T04:20:21;11.93;74.57
75683;HTU21D;64295;44.772;39.872;2023-04-06T04:22:47;11.94;74.50
75683;HTU21D;64295;44.772;39.872;2023-04-06T04:25:14;11.98;74.49
75683;HTU21D;64295;44.772;39.872;2023-04-06T04:27:45;11.98;74.45
75683;HTU21D;64295;44.772;39.872;2023-04-06T04:30:11;11.99;74.47
75683;HTU21D;64295;44.772;39.872;2023-04-06T04:32:37;11.99;74.51
75683;HTU21D;64295;44.772;39.872;2023-04-06T04:35:06;11.99;74.56
75683;HTU21D;64295;44.772;39.872;2023-04-06T04:37:41;11.98;74.57
75683;HTU21D;64295;44.772;39.872;2023-04-06T04:40:08;11.99;74.63
75683;HTU21D;64295;44.772;39.872;2023-04-06T04:42:44;11.98;74.64
75683;HTU21D;64295;44.772;39.872;2023-04-06T04:45:25;11.99;74.71
75683;HTU21D;64295;44.772;39.872;2023-04-06T04:47:52;12.01;74.64
75683;HTU21D;64295;44.772;39.872;2023-04-06T04:50:20;12.01;74.67
75683;HTU21D;64295;44.772;39.872;2023-04-06T04:52:50;12.01;74.70
75683;HTU21D;64295;44.772;39.872;2023-04-06T04:55:20;12.02;74.70
75683;HTU21D;64295;44.772;39.872;2023-04-06T04:57:52;12.03;74.73
75683;HTU21D;64295;44.772;39.872;2023-04-06T05:00:22;12.04;74.70
75683;HTU21D;64295;44.772;39.872;2023-04-06T05:02:55;12.03;74.75
75683;HTU21D;64295;44.772;39.872;2023-04-06T05:05:27;12.04;74.75
75683;HTU21D;64295;44.772;39.872;2023-04-06T05:07:56;12.07;74.78
75683;HTU21D;64295;44.772;39.872;2023-04-06T05:10:43;12.10;74.69
75683;HTU21D;64295;44.772;39.872;2023-04-06T05:13:10;12.08;74.70
75683;HTU21D;64295;44.772;39.872;2023-04-06T05:15:36;12.10;74.76
75683;HTU21D;64295;44.772;39.872;2023-04-06T05:18:20;12.10;74.81
75683;HTU21D;64295;44.772;39.872;2023-04-06T05:20:49;12.08;74.83
75683;HTU21D;64295;44.772;39.872;2023-04-06T05:23:20;12.07;74.86
75683;HTU21D;64295;44.772;39.872;2023-04-06T05:25:47;12.05;74.92
75683;HTU21D;64295;44.772;39.872;2023-04-06T05:28:18;12.03;74.99
75683;HTU21D;64295;44.772;39.872;2023-04-06T05:30:44;12.03;75.02
75683;HTU21D;64295;44.772;39.872;2023-04-06T05:33:12;12.02;75.09
75683;HTU21D;64295;44.772;39.872;2023-04-06T05:35:54;12.01;75.05
75683;HTU21D;64295;44.772;39.872;2023-04-06T05:38:21;11.99;75.15
75683;HTU21D;64295;44.772;39.872;2023-04-06T05:40:48;12.00;75.21
75683;HTU21D;64295;44.772;39.872;2023-04-06T05:43:17;12.03;75.17
75683;HTU21D;64295;44.772;39.872;2023-04-06T05:45:50;12.07;75.12
75683;HTU21D;64295;44.772;39.872;2023-04-06T05:48:16;12.08;75.10
75683;HTU21D;64295;44.772;39.872;2023-04-06T05:50:42;12.07;75.18
75683;HTU21D;64295;44.772;39.872;2023-04-06T05:53:11;12.05;75.24
75683;HTU21D;64295;44.772;39.872;2023-04-06T05:55:42;12.02;75.32
75683;HTU21D;64295;44.772;39.872;2023-04-06T05:58:13;12.00;75.41
75683;HTU21D;64295;44.772;39.872;2023-04-06T06:00:39;11.98;75.58
75683;HTU21D;64295;44.772;39.872;2023-04-06T06:03:07;11.99;75.59
75683;HTU21D;64295;44.772;39.872;2023-04-06T06:05:34;11.98;75.63
75683;HTU21D;64295;44.772;39.872;2023-04-06T06:08:23;11.96;75.63
75683;HTU21D;64295;44.772;39.872;2023-04-06T06:10:51;11.93;75.74
75683;HTU21D;64295;44.772;39.872;2023-04-06T06:13:20;11.91;75.79
75683;HTU21D;64295;44.772;39.872;2023-04-06T06:15:49;11.88;75.89
75683;HTU21D;64295;44.772;39.872;2023-04-06T06:18:19;11.86;75.97
75683;HTU21D;64295;44.772;39.872;2023-04-06T06:20:46;11.88;75.97
75683;HTU21D;64295;44.772;39.872;2023-04-06T06:23:12;11.90;75.98
75683;HTU21D;64295;44.772;39.872;2023-04-06T06:25:39;11.90;75.98
75683;HTU21D;64295;44.772;39.872;2023-04-06T06:28:06;11.90;75.99
75683;HTU21D;64295;44.772;39.872;2023-04-06T06:30:32;11.91;76.01
75683;HTU21D;64295;44.772;39.872;2023-04-06T06:32:59;11.92;76.02
75683;HTU21D;64295;44.772;39.872;2023-04-06T06:35:26;11.89;76.08
75683;HTU21D;64295;44.772;39.872;2023-04-06T06:37:52;11.89;76.11
75683;HTU21D;64295;44.772;39.872;2023-04-06T06:40:24;11.88;76.15
75683;HTU21D;64295;44.772;39.872;2023-04-06T06:42:53;11.87;76.19
75683;HTU21D;64295;44.772;39.872;2023-04-06T06:45:33;11.94;76.18
75683;HTU21D;64295;44.772;39.872;2023-04-06T06:47:59;11.98;76.10
75683;HTU21D;64295;44.772;39.872;2023-04-06T06:50:25;11.98;76.12
75683;HTU21D;64295;44.772;39.872;2023-04-06T06:52:51;11.98;76.16
75683;HTU21D;64295;44.772;39.872;2023-04-06T06:55:17;11.98;76.21
75683;HTU21D;64295;44.772;39.872;2023-04-06T06:57:45;11.96;76.28
75683;HTU21D;64295;44.772;39.872;2023-04-06T07:00:13;11.93;76.34
75683;HTU21D;64295;44.772;39.872;2023-04-06T07:02:42;11.97;76.39
75683;HTU21D;64295;44.772;39.872;2023-04-06T07:05:08;12.00;76.33
75683;HTU21D;64295;44.772;39.872;2023-04-06T07:07:35;12.00;76.38
75683;HTU21D;64295;44.772;39.872;2023-04-06T07:10:01;11.96;76.50
75683;HTU21D;64295;44.772;39.872;2023-04-06T07:12:27;11.97;76.55
75683;HTU21D;64295;44.772;39.872;2023-04-06T07:14:53;11.99;76.57
75683;HTU21D;64295;44.772;39.872;2023-04-06T07:17:19;11.98;76.57
75683;HTU21D;64295;44.772;39.872;2023-04-06T07:19:45;11.96;76.66
75683;HTU21D;64295;44.772;39.872;2023-04-06T07:22:11;11.92;76.73
75683;HTU21D;64295;44.772;39.872;2023-04-06T07:24:38;11.93;76.73
75683;HTU21D;64295;44.772;39.872;2023-04-06T07:27:04;11.92;76.76
75683;HTU21D;64295;44.772;39.872;2023-04-06T07:29:30;11.89;76.84
75683;HTU21D;64295;44.772;39.872;2023-04-06T07:31:57;11.90;76.86
75683;HTU21D;64295;44.772;39.872;2023-04-06T07:34:23;11.92;76.86
75683;HTU21D;64295;44.772;39.872;2023-04-06T07:36:49;11.93;76.88
75683;HTU21D;64295;44.772;39.872;2023-04-06T07:39:15;11.93;76.97
75683;HTU21D;64295;44.772;39.872;2023-04-06T07:41:41;11.96;77.00
75683;HTU21D;64295;44.772;39.872;2023-04-06T07:44:07;12.01;76.97
75683;HTU21D;64295;44.772;39.872;2023-04-06T07:46:33;12.03;76.98
75683;HTU21D;64295;44.772;39.872;2023-04-06T07:49:01;12.05;77.00
75683;HTU21D;64295;44.772;39.872;2023-04-06T07:51:31;12.08;76.97
75683;HTU21D;64295;44.772;39.872;2023-04-06T07:53:57;12.11;77.02
75683;HTU21D;64295;44.772;39.872;2023-04-06T07:56:23;12.14;77.00
75683;HTU21D;64295;44.772;39.872;2023-04-06T07:58:49;12.13;77.04
75683;HTU21D;64295;44.772;39.872;2023-04-06T08:01:15;12.15;77.08
75683;HTU21D;64295;44.772;39.872;2023-04-06T08:03:41;12.14;77.18
75683;HTU21D;64295;44.772;39.872;2023-04-06T08:06:07;12.17;77.21
75683;HTU21D;64295;44.772;39.872;2023-04-06T08:08:33;12.21;77.18
75683;HTU21D;64295;44.772;39.872;2023-04-06T08:11:02;12.29;77.15
75683;HTU21D;64295;44.772;39.872;2023-04-06T08:13:30;12.34;77.17
75683;HTU21D;64295;44.772;39.872;2023-04-06T08:15:56;12.41;77.09
75683;HTU21D;64295;44.772;39.872;2023-04-06T08:18:25;12.41;77.15
75683;HTU21D;64295;44.772;39.872;2023-04-06T08:20:51;12.38;77.31
75683;HTU21D;64295;44.772;39.872;2023-04-06T08:23:17;12.35;77.50
75683;HTU21D;64295;44.772;39.872;2023-04-06T08:25:43;12.35;77.55
75683;HTU21D;64295;44.772;39.872;2023-04-06T08:28:09;12.34;77.76
75683;HTU21D;64295;44.772;39.872;2023-04-06T08:30:35;12.28;77.88
75683;HTU21D;64295;44.772;39.872;2023-04-06T08:33:02;12.29;77.76
75683;HTU21D;64295;44.772;39.872;2023-04-06T08:35:31;12.34;77.65
75683;HTU21D;64295;44.772;39.872;2023-04-06T08:38:02;12.40;77.67
75683;HTU21D;64295;44.772;39.872;2023-04-06T08:40:28;12.38;77.72
75683;HTU21D;64295;44.772;39.872;2023-04-06T08:42:56;12.41;77.70
75683;HTU21D;64295;44.772;39.872;2023-04-06T08:45:22;12.44;77.66
75683;HTU21D;64295;44.772;39.872;2023-04-06T08:47:50;12.48;77.66
75683;HTU21D;64295;44.772;39.872;2023-04-06T08:50:17;12.49;77.62
75683;HTU21D;64295;44.772;39.872;2023-04-06T08:52:46;12.51;77.60
75683;HTU21D;64295;44.772;39.872;2023-04-06T08:55:13;12.56;77.57
75683;HTU21D;64295;44.772;39.872;2023-04-06T08:57:39;12.58;77.50
75683;HTU21D;64295;44.772;39.872;2023-04-06T09:00:09;12.59;77.51
75683;HTU21D;64295;44.772;39.872;2023-04-06T09:02:39;12.63;77.47
75683;HTU21D;64295;44.772;39.872;2023-04-06T09:05:07;12.63;77.40
75683;HTU21D;64295;44.772;39.872;2023-04-06T09:07:34;12.63;77.46
75683;HTU21D;64295;44.772;39.872;2023-04-06T09:10:00;12.55;77.75
75683;HTU21D;64295;44.772;39.872;2023-04-06T09:12:27;12.46;78.00
75683;HTU21D;64295;44.772;39.872;2023-04-06T09:14:54;12.44;78.08
75683;HTU21D;64295;44.772;39.872;2023-04-06T09:17:26;12.48;78.02
75683;HTU21D;64295;44.772;39.872;2023-04-06T09:19:52;12.46;77.95
75683;HTU21D;64295;44.772;39.872;2023-04-06T09:22:21;12.46;78.01
75683;HTU21D;64295;44.772;39.872;2023-04-06T09:24:49;12.38;78.23
75683;HTU21D;64295;44.772;39.872;2023-04-06T09:27:16;12.33;78.40
75683;HTU21D;64295;44.772;39.872;2023-04-06T09:29:44;12.35;78.37
75683;HTU21D;64295;44.772;39.872;2023-04-06T09:32:11;12.31;78.37
75683;HTU21D;64295;44.772;39.872;2023-04-06T09:34:40;12.30;78.41
75683;HTU21D;64295;44.772;39.872;2023-04-06T09:37:16;12.32;78.41
75683;HTU21D;64295;44.772;39.872;2023-04-06T09:39:42;12.37;78.20
75683;HTU21D;64295;44.772;39.872;2023-04-06T09:42:08;12.33;78.30
75683;HTU21D;64295;44.772;39.872;2023-04-06T09:44:34;12.30;78.42
75683;HTU21D;64295;44.772;39.872;2023-04-06T09:47:00;12.29;78.49
75683;HTU21D;64295;44.772;39.872;2023-04-06T09:49:30;12.27;78.51
75683;HTU21D;64295;44.772;39.872;2023-04-06T09:52:03;12.32;78.48
75683;HTU21D;64295;44.772;39.872;2023-04-06T09:54:32;12.42;78.22
75683;HTU21D;64295;44.772;39.872;2023-04-06T10:00:09;12.43;78.43
75683;HTU21D;64295;44.772;39.872;2023-04-06T10:08:09;12.34;78.98
75683;HTU21D;64295;44.772;39.872;2023-04-06T10:10:36;12.34;78.94
75683;HTU21D;64295;44.772;39.872;2023-04-06T10:13:03;12.34;78.87
75683;HTU21D;64295;44.772;39.872;2023-04-06T10:15:32;12.36;78.98
75683;HTU21D;64295;44.772;39.872;2023-04-06T10:18:05;12.34;78.90
75683;HTU21D;64295;44.772;39.872;2023-04-06T10:23:29;12.34;78.94
75683;HTU21D;64295;44.772;39.872;2023-04-06T10:26:00;12.38;78.79
75683;HTU21D;64295;44.772;39.872;2023-04-06T10:28:35;12.43;78.69
75683;HTU21D;64295;44.772;39.872;2023-04-06T10:31:04;12.48;78.65
75683;HTU21D;64295;44.772;39.872;2023-04-06T10:33:30;12.53;78.40
75683;HTU21D;64295;44.772;39.872;2023-04-06T10:35:57;12.57;78.06
75683;HTU21D;64295;44.772;39.872;2023-04-06T10:38:37;12.59;78.14
75683;HTU21D;64295;44.772;39.872;2023-04-06T10:41:07;12.60;78.09
75683;HTU21D;64295;44.772;39.872;2023-04-06T10:43:34;12.59;78.09
75683;HTU21D;64295;44.772;39.872;2023-04-06T10:46:07;12.61;78.09
75683;HTU21D;64295;44.772;39.872;2023-04-06T10:48:44;12.67;78.08
75683;HTU21D;64295;44.772;39.872;2023-04-06T10:51:12;12.74;77.92
75683;HTU21D;64295;44.772;39.872;2023-04-06T10:53:45;12.81;77.80
75683;HTU21D;64295;44.772;39.872;2023-04-06T10:56:16;12.88;77.67
75683;HTU21D;64295;44.772;39.872;2023-04-06T10:58:50;12.94;77.56
75683;HTU21D;64295;44.772;39.872;2023-04-06T11:01:21;12.97;77.60
75683;HTU21D;64295;44.772;39.872;2023-04-06T11:03:50;12.95;77.60
75683;HTU21D;64295;44.772;39.872;2023-04-06T11:06:22;12.96;77.57
75683;HTU21D;64295;44.772;39.872;2023-04-06T11:08:49;13.01;77.56
75683;HTU21D;64295;44.772;39.872;2023-04-06T11:11:18;13.06;77.51
75683;HTU21D;64295;44.772;39.872;2023-04-06T11:13:55;13.09;77.47
75683;HTU21D;64295;44.772;39.872;2023-04-06T11:16:29;13.18;77.36
75683;HTU21D;64295;44.772;39.872;2023-04-06T11:21:37;13.35;76.98
75683;HTU21D;64295;44.772;39.872;2023-04-06T11:24:13;13.37;76.97
75683;HTU21D;64295;44.772;39.872;2023-04-06T11:26:50;13.49;76.86
75683;HTU21D;64295;44.772;39.872;2023-04-06T11:29:23;13.62;76.63
75683;HTU21D;64295;44.772;39.872;2023-04-06T11:31:58;13.78;76.38
75683;HTU21D;64295;44.772;39.872;2023-04-06T11:34:25;13.97;76.08
75683;HTU21D;64295;44.772;39.872;2023-04-06T11:37:00;14.12;75.92
75683;HTU21D;64295;44.772;39.872;2023-04-06T11:39:28;14.24;75.57
75683;HTU21D;64295;44.772;39.872;2023-04-06T11:41:58;14.28;75.41
75683;HTU21D;64295;44.772;39.872;2023-04-06T11:44:43;14.28;75.47
75683;HTU21D;64295;44.772;39.872;2023-04-06T11:47:12;14.25;75.47
75683;HTU21D;64295;44.772;39.872;2023-04-06T11:49:43;14.18;75.51
75683;HTU21D;64295;44.772;39.872;2023-04-06T11:52:28;14.11;75.54
75683;HTU21D;64295;44.772;39.872;2023-04-06T11:54:57;14.13;75.67
75683;HTU21D;64295;44.772;39.872;2023-04-06T11:57:56;14.14;75.64
75683;HTU21D;64295;44.772;39.872;2023-04-06T12:00:28;14.09;75.73
75683;HTU21D;64295;44.772;39.872;2023-04-06T12:03:05;14.03;75.85
75683;HTU21D;64295;44.772;39.872;2023-04-06T12:05:33;13.99;75.89
75683;HTU21D;64295;44.772;39.872;2023-04-06T12:08:00;13.97;75.92
75683;HTU21D;64295;44.772;39.872;2023-04-06T12:10:26;13.95;75.89
75683;HTU21D;64295;44.772;39.872;2023-04-06T12:12:52;13.95;75.85
75683;HTU21D;64295;44.772;39.872;2023-04-06T12:15:18;13.94;75.77
75683;HTU21D;64295;44.772;39.872;2023-04-06T12:17:44;13.89;75.77
75683;HTU21D;64295;44.772;39.872;2023-04-06T12:20:19;13.86;75.69
75683;HTU21D;64295;44.772;39.872;2023-04-06T12:22:45;13.85;75.70
75683;HTU21D;64295;44.772;39.872;2023-04-06T12:25:11;13.88;75.56
75683;HTU21D;64295;44.772;39.872;2023-04-06T12:27:38;13.84;75.49
75683;HTU21D;64295;44.772;39.872;2023-04-06T12:30:05;13.82;75.51
75683;HTU21D;64295;44.772;39.872;2023-04-06T12:32:34;13.88;75.39
75683;HTU21D;64295;44.772;39.872;2023-04-06T12:35:00;13.90;75.28
75683;HTU21D;64295;44.772;39.872;2023-04-06T12:37:27;13.93;75.15
75683;HTU21D;64295;44.772;39.872;2023-04-06T12:39:53;13.95;75.12
75683;HTU21D;64295;44.772;39.872;2023-04-06T12:42:19;14.00;74.99
75683;HTU21D;64295;44.772;39.872;2023-04-06T12:44:45;14.09;74.72
75683;HTU21D;64295;44.772;39.872;2023-04-06T12:47:12;14.15;74.52
75683;HTU21D;64295;44.772;39.872;2023-04-06T12:49:38;14.09;74.38
75683;HTU21D;64295;44.772;39.872;2023-04-06T12:52:04;14.08;74.47
75683;HTU21D;64295;44.772;39.872;2023-04-06T12:54:33;14.18;74.34
75683;HTU21D;64295;44.772;39.872;2023-04-06T12:56:59;14.30;74.09
75683;HTU21D;64295;44.772;39.872;2023-04-06T12:59:26;14.43;73.83
75683;HTU21D;64295;44.772;39.872;2023-04-06T13:01:52;14.57;73.55
75683;HTU21D;64295;44.772;39.872;2023-04-06T13:04:18;14.68;73.36
75683;HTU21D;64295;44.772;39.872;2023-04-06T13:06:44;14.74;73.16
75683;HTU21D;64295;44.772;39.872;2023-04-06T13:09:10;14.78;72.90
75683;HTU21D;64295;44.772;39.872;2023-04-06T13:11:36;14.77;72.84
75683;HTU21D;64295;44.772;39.872;2023-04-06T13:14:02;14.79;72.52
75683;HTU21D;64295;44.772;39.872;2023-04-06T13:16:30;14.79;72.49
75683;HTU21D;64295;44.772;39.872;2023-04-06T13:19:00;14.80;72.40
75683;HTU21D;64295;44.772;39.872;2023-04-06T13:21:26;14.82;72.31
75683;HTU21D;64295;44.772;39.872;2023-04-06T13:23:52;14.81;72.16
75683;HTU21D;64295;44.772;39.872;2023-04-06T13:26:19;14.75;72.13
75683;HTU21D;64295;44.772;39.872;2023-04-06T13:28:45;14.80;72.09
75683;HTU21D;64295;44.772;39.872;2023-04-06T13:31:11;14.84;72.00
75683;HTU21D;64295;44.772;39.872;2023-04-06T13:33:37;14.87;71.90
75683;HTU21D;64295;44.772;39.872;2023-04-06T13:36:04;14.93;71.84
75683;HTU21D;64295;44.772;39.872;2023-04-06T13:38:31;14.97;71.67
75683;HTU21D;64295;44.772;39.872;2023-04-06T13:40:59;14.92;71.57
75683;HTU21D;64295;44.772;39.872;2023-04-06T13:43:27;14.92;71.48
75683;HTU21D;64295;44.772;39.872;2023-04-06T13:45:54;14.92;71.32
75683;HTU21D;64295;44.772;39.872;2023-04-06T13:48:21;14.93;71.19
75683;HTU21D;64295;44.772;39.872;2023-04-06T13:50:48;14.94;71.01
75683;HTU21D;64295;44.772;39.872;2023-04-06T13:53:14;14.93;70.95
75683;HTU21D;64295;44.772;39.872;2023-04-06T13:55:40;14.94;70.88
75683;HTU21D;64295;44.772;39.872;2023-04-06T13:58:06;14.96;70.77
75683;HTU21D;64295;44.772;39.872;2023-04-06T14:00:52;14.99;70.64
75683;HTU21D;64295;44.772;39.872;2023-04-06T14:03:19;15.03;70.55
75683;HTU21D;64295;44.772;39.872;2023-04-06T14:05:46;15.04;70.48
75683;HTU21D;64295;44.772;39.872;2023-04-06T14:08:12;15.04;70.39
75683;HTU21D;64295;44.772;39.872;2023-04-06T14:10:41;15.02;70.34
75683;HTU21D;64295;44.772;39.872;2023-04-06T14:13:17;15.00;70.43
75683;HTU21D;64295;44.772;39.872;2023-04-06T14:15:44;14.98;70.39
75683;HTU21D;64295;44.772;39.872;2023-04-06T14:18:10;14.99;70.33
75683;HTU21D;64295;44.772;39.872;2023-04-06T14:20:37;14.95;70.20
75683;HTU21D;64295;44.772;39.872;2023-04-06T14:23:03;14.85;70.19
75683;HTU21D;64295;44.772;39.872;2023-04-06T14:25:29;14.77;70.26
75683;HTU21D;64295;44.772;39.872;2023-04-06T14:28:00;14.77;70.29
75683;HTU21D;64295;44.772;39.872;2023-04-06T14:30:26;14.80;70.18
75683;HTU21D;64295;44.772;39.872;2023-04-06T14:32:57;14.80;70.13
75683;HTU21D;64295;44.772;39.872;2023-04-06T14:35:23;14.80;70.10
75683;HTU21D;64295;44.772;39.872;2023-04-06T14:37:50;14.77;70.09
75683;HTU21D;64295;44.772;39.872;2023-04-06T14:40:19;14.73;70.10
75683;HTU21D;64295;44.772;39.872;2023-04-06T14:42:45;14.65;70.14
75683;HTU21D;64295;44.772;39.872;2023-04-06T14:45:12;14.54;70.26
75683;HTU21D;64295;44.772;39.872;2023-04-06T14:47:38;14.52;70.37
75683;HTU21D;64295;44.772;39.872;2023-04-06T14:50:07;14.49;70.30
75683;HTU21D;64295;44.772;39.872;2023-04-06T14:52:33;14.42;70.39
75683;HTU21D;64295;44.772;39.872;2023-04-06T14:54:59;14.40;70.44
75683;HTU21D;64295;44.772;39.872;2023-04-06T14:57:40;14.40;70.54
75683;HTU21D;64295;44.772;39.872;2023-04-06T15:00:07;14.49;70.44
75683;HTU21D;64295;44.772;39.872;2023-04-06T15:02:35;14.50;70.35
75683;HTU21D;64295;44.772;39.872;2023-04-06T15:05:01;14.47;70.29
75683;HTU21D;64295;44.772;39.872;2023-04-06T15:07:31;14.40;70.36
75683;HTU21D;64295;44.772;39.872;2023-04-06T15:09:58;14.40;70.30
75683;HTU21D;64295;44.772;39.872;2023-04-06T15:12:24;14.36;70.32
75683;HTU21D;64295;44.772;39.872;2023-04-06T15:14:49;14.32;70.36
75683;HTU21D;64295;44.772;39.872;2023-04-06T15:17:18;14.25;70.38
75683;HTU21D;64295;44.772;39.872;2023-04-06T15:19:46;14.13;70.60
75683;HTU21D;64295;44.772;39.872;2023-04-06T15:22:12;14.08;70.69
75683;HTU21D;64295;44.772;39.872;2023-04-06T15:24:46;14.01;70.81
75683;HTU21D;64295;44.772;39.872;2023-04-06T15:27:19;13.94;70.92